Time;durP1;ratioP1;P1;durP2;ratioP2;P2;SDS_P1;SDS_P2;PMS_P1;PMS_P2;Temp;Humidity;BMP_temperature;BMP_pressure;BME280_temperature;BME280_humidity;BME280_pressure;Samples;Min_cycle;Max_cycle;Signal;HPM_P1;HPM_P2
2022/10/16 00:01:28;;;;;;;;;8.75;8.75;;;;;15.96;70.53;101522.16;146632;615;45914;-73
2022/10/16 00:04:22;;;;;;;;;9.50;8.50;;;;;15.92;70.88;101522.03;146634;667;45010;-74
2022/10/16 00:07:18;;;;;;;;;8.25;8.25;;;;;15.94;70.80;101524.69;146635;704;45016;-75
2022/10/16 00:10:23;;;;;;;;;13.25;9.50;;;;;15.93;71.29;101518.56;146631;569;45020;-74
2022/10/16 00:13:34;;;;;;;;;10.00;9.00;;;;;14.00;70.71;101183.69;146632;708;45013;-74
2022/10/16 00:16:33;;;;;;;;;13.00;8.50;;;;;15.87;71.13;101520.91;146634;564;46010;-69
2022/10/16 00:19:37;;;;;;;;;10.75;10.50;;;;;15.86;70.72;101521.75;146636;570;45012;-71
2022/10/16 00:22:29;;;;;;;;;12.50;9.50;;;;;15.84;71.21;101526.03;146629;573;45010;-72
2022/10/16 00:25:24;;;;;;;;;10.75;10.00;;;;;15.86;71.48;101520.88;146634;569;45016;-72
2022/10/16 00:28:19;;;;;;;;;11.50;10.00;;;;;15.88;71.49;101527.94;146615;688;46020;-69
2022/10/16 00:31:15;;;;;;;;;9.50;8.50;;;;;15.85;71.10;101530.41;146610;580;46016;-68
2022/10/16 00:34:21;;;;;;;;;10.00;10.00;;;;;15.91;71.13;101537.63;146620;658;46020;-70
2022/10/16 00:37:28;;;;;;;;;10.00;10.00;;;;;14.03;71.05;101198.59;146611;635;46012;-74
2022/10/16 00:40:40;;;;;;;;;9.50;9.25;;;;;14.05;70.92;101189.13;146613;666;46020;-81
2022/10/16 00:43:56;;;;;;;;;11.00;10.25;;;;;15.99;70.52;101524.91;146616;576;46016;-80
2022/10/16 00:46:49;;;;;;;;;9.75;9.00;;;;;15.93;70.89;101526.41;146612;664;46010;-76
2022/10/16 00:49:48;;;;;;;;;8.25;8.00;;;;;15.86;71.13;101524.38;146616;571;46016;-71
2022/10/16 00:52:46;;;;;;;;;8.25;8.25;;;;;15.79;70.89;101524.03;146613;577;46020;-75
2022/10/16 00:55:38;;;;;;;;;8.50;7.25;;;;;15.75;71.10;101523.00;146617;617;46016;-77
2022/10/16 00:58:43;;;;;;;;;11.50;10.50;;;;;15.75;71.23;101535.19;146621;671;46021;-76
2022/10/16 01:01:35;;;;;;;;;9.25;8.00;;;;;15.69;71.17;101526.25;146611;598;47014;-76
2022/10/16 01:04:37;;;;;;;;;9.33;8.33;;;;;15.67;71.60;101520.06;146622;579;46021;-76
2022/10/16 01:08:18;;;;;;;;;10.25;9.75;;;;;15.66;71.33;101515.63;146616;605;46012;-76
2022/10/16 01:11:37;;;;;;;;;10.00;9.25;;;;;13.80;70.65;101185.41;146619;569;46037;-72
2022/10/16 01:15:10;;;;;;;;;8.25;7.00;;;;;15.68;70.59;101519.25;146615;679;46016;-72
2022/10/16 01:18:26;;;;;;;;;13.75;11.00;;;;;15.69;69.96;101515.78;146621;586;46020;-70
2022/10/16 01:21:36;;;;;;;;;12.00;12.00;;;;;15.72;69.89;101522.00;146609;605;46017;-70
2022/10/16 01:25:02;;;;;;;;;12.00;10.75;;;;;15.73;69.61;101522.03;146608;608;46020;-75
2022/10/16 01:28:01;;;;;;;;;10.75;10.25;;;;;15.67;69.91;101517.47;146607;654;46016;-69
2022/10/16 01:31:03;;;;;;;;;13.75;12.75;;;;;15.61;70.07;101518.88;146612;658;46010;-70
2022/10/16 01:34:26;;;;;;;;;13.25;9.00;;;;;13.57;69.56;101199.97;146613;566;46012;-73
2022/10/16 01:37:36;;;;;;;;;;;;;;;;;;;;;
2022/10/16 01:40:31;;;;;;;;;10.25;9.00;;;;;15.22;70.60;101526.75;146618;582;46016;-72
2022/10/16 01:43:43;;;;;;;;;10.25;9.25;;;;;15.15;70.78;101520.34;146621;661;46021;-71
2022/10/16 01:46:48;;;;;;;;;10.75;9.75;;;;;15.10;70.99;101521.84;146614;647;46016;-73
2022/10/16 01:49:55;;;;;;;;;12.25;10.25;;;;;13.13;71.02;101192.63;146620;688;46010;-72
2022/10/16 01:52:52;;;;;;;;;10.50;9.50;;;;;14.98;71.71;101529.13;146611;570;46029;-73
2022/10/16 01:56:05;;;;;;;;;10.75;10.25;;;;;14.86;71.75;101529.47;146604;713;46020;-72
2022/10/16 01:59:23;;;;;;;;;11.75;9.75;;;;;13.09;71.19;101248.00;146612;576;46016;-73
2022/10/16 02:02:28;;;;;;;;;10.00;9.00;;;;;14.62;71.95;101539.63;146622;663;46020;-73
2022/10/16 02:05:31;;;;;;;;;12.00;11.50;;;;;14.54;72.61;101546.19;146621;624;46012;-72
2022/10/16 02:08:28;;;;;;;;;9.75;8.00;;;;;14.49;72.55;101545.06;146614;579;46020;-71
2022/10/16 02:11:32;;;;;;;;;9.50;8.00;;;;;14.48;73.48;101549.34;146618;595;46914;-72
2022/10/16 02:14:28;;;;;;;;;8.50;8.50;;;;;14.43;72.57;101552.59;146619;563;46012;-72
2022/10/16 02:17:24;;;;;;;;;10.75;9.75;;;;;14.37;73.14;101557.50;146619;590;46012;-71
2022/10/16 02:20:18;;;;;;;;;11.25;10.00;;;;;14.31;73.05;101556.38;146621;564;46030;-72
2022/10/16 02:23:17;;;;;;;;;10.75;9.75;;;;;14.24;73.99;101556.91;146612;564;46033;-73
2022/10/16 02:26:20;;;;;;;;;13.75;12.00;;;;;14.18;73.54;101558.31;146602;586;47010;-83
2022/10/16 02:29:21;;;;;;;;;10.00;9.50;;;;;14.15;73.48;101561.66;146617;656;47012;-82
2022/10/16 02:32:24;;;;;;;;;9.25;9.00;;;;;14.13;73.71;101572.84;146621;687;46020;-81
2022/10/16 02:35:26;;;;;;;;;13.50;13.50;;;;;14.07;73.95;101574.31;146617;629;46017;-80
2022/10/16 02:38:34;;;;;;;;;21.25;15.25;;;;;14.00;74.20;101567.00;146620;575;46020;-82
2022/10/16 02:41:31;;;;;;;;;10.00;10.00;;;;;13.99;74.44;101570.44;146620;670;46016;-82
2022/10/16 02:44:23;;;;;;;;;16.25;12.00;;;;;14.00;74.54;101569.59;146622;584;46010;-75
2022/10/16 02:47:20;;;;;;;;;11.75;9.75;;;;;13.97;74.19;101576.37;146617;571;46016;-76
2022/10/16 02:50:24;;;;;;;;;11.00;11.00;;;;;13.95;74.51;101581.50;146620;636;46020;-77
2022/10/16 02:53:17;;;;;;;;;13.00;12.75;;;;;13.14;73.83;101433.97;146617;675;46012;-76
2022/10/16 02:56:11;;;;;;;;;15.25;13.00;;;;;13.94;73.95;101584.94;146617;651;46010;-77
2022/10/16 02:59:10;;;;;;;;;11.25;11.25;;;;;13.96;74.00;101585.03;146618;625;46016;-70
2022/10/16 03:02:12;;;;;;;;;14.75;12.00;;;;;13.92;74.45;101596.97;146620;572;46012;-85
2022/10/16 03:05:09;;;;;;;;;12.00;11.00;;;;;13.85;74.89;101601.00;146617;569;46014;-87
2022/10/16 03:08:06;;;;;;;;;13.00;12.00;;;;;13.77;74.22;101597.09;146620;574;46020;-84
2022/10/16 03:11:00;;;;;;;;;12.25;11.25;;;;;13.78;74.54;101598.00;146619;693;46017;-80
2022/10/16 03:13:53;;;;;;;;;12.50;12.50;;;;;13.81;74.58;101598.16;146619;645;46020;-77
2022/10/16 03:16:46;;;;;;;;;13.25;12.00;;;;;13.84;74.94;101607.03;146619;570;46012;-70
2022/10/16 03:19:38;;;;;;;;;15.75;13.50;;;;;13.84;74.87;101611.34;146621;574;46021;-77
2022/10/16 03:22:33;;;;;;;;;14.75;13.25;;;;;13.85;74.65;101613.13;146618;599;46016;-75
2022/10/16 03:25:36;;;;;;;;;16.00;15.75;;;;;12.97;74.53;101437.41;146613;572;46020;-79
2022/10/16 03:28:42;;;;;;;;;14.75;12.50;;;;;13.95;74.44;101599.75;146616;579;46017;-78
2022/10/16 03:31:34;;;;;;;;;14.75;14.25;;;;;14.03;74.80;101613.19;146621;577;46010;-75
2022/10/16 03:34:30;;;;;;;;;14.75;12.75;;;;;14.06;74.32;101611.62;146618;575;46014;-76
2022/10/16 03:37:36;;;;;;;;;;;;;;;;;;;;;
2022/10/16 03:40:32;;;;;;;;;14.25;14.00;;;;;14.15;74.09;101628.59;146615;595;46016;-77
2022/10/16 03:43:34;;;;;;;;;14.25;13.00;;;;;14.11;74.49;101635.31;146620;618;46010;-76
2022/10/16 03:46:27;;;;;;;;;13.00;12.00;;;;;14.05;73.90;101637.66;146615;571;47014;-77
2022/10/16 03:49:34;;;;;;;;;13.75;12.00;;;;;14.03;74.24;101636.66;146618;572;47011;-70
2022/10/16 03:52:40;;;;;;;;;17.75;13.50;;;;;14.06;74.68;101639.44;146617;584;46016;-72
2022/10/16 03:55:38;;;;;;;;;15.25;13.00;;;;;14.08;74.81;101643.00;146616;600;46010;-74
2022/10/16 03:58:31;;;;;;;;;16.50;15.00;;;;;14.02;74.43;101642.72;146618;611;46014;-75
2022/10/16 04:01:37;;;;;;;;;14.25;13.50;;;;;13.98;74.05;101640.75;146619;638;46010;-74
2022/10/16 04:04:32;;;;;;;;;13.75;13.75;;;;;13.97;74.37;101639.84;146617;564;46016;-73
2022/10/16 04:07:31;;;;;;;;;17.50;15.00;;;;;13.97;74.83;101641.56;146619;610;47010;-74
2022/10/16 04:10:23;;;;;;;;;13.25;13.25;;;;;13.95;74.59;101635.38;146616;570;46017;-78
2022/10/16 04:13:21;;;;;;;;;16.25;15.00;;;;;13.94;74.32;101633.59;146621;580;46010;-79
2022/10/16 04:16:24;;;;;;;;;16.50;15.00;;;;;11.82;73.96;101263.03;146616;594;46012;-76
2022/10/16 04:19:31;;;;;;;;;14.50;13.75;;;;;13.93;74.63;101637.91;146618;570;46029;-74
2022/10/16 04:22:23;;;;;;;;;19.75;16.50;;;;;13.93;74.35;101634.41;146613;594;47914;-75
2022/10/16 04:25:15;;;;;;;;;15.75;14.75;;;;;13.89;74.10;101627.22;146615;661;46021;-77
2022/10/16 04:28:09;;;;;;;;;14.25;14.00;;;;;13.93;74.27;101632.69;146616;579;46014;-77
2022/10/16 04:31:02;;;;;;;;;15.00;13.50;;;;;13.99;74.49;101633.00;146620;633;46020;-80
2022/10/16 04:33:54;;;;;;;;;17.25;14.75;;;;;13.98;74.15;101636.41;146616;573;46016;-80
2022/10/16 04:36:50;;;;;;;;;19.50;15.75;;;;;13.95;74.14;101643.19;146618;607;46020;-76
2022/10/16 04:39:54;;;;;;;;;;;;;;;;;;;;;
2022/10/16 04:42:56;;;;;;;;;18.50;17.50;;;;;13.89;73.91;101648.06;146620;625;46024;-71
2022/10/16 04:45:50;;;;;;;;;16.00;15.75;;;;;13.86;74.09;101649.72;146614;626;46016;-72
2022/10/16 04:48:46;;;;;;;;;22.75;18.00;;;;;13.85;74.46;101660.06;146622;601;47010;-72
2022/10/16 04:51:43;;;;;;;;;18.25;16.00;;;;;13.79;74.40;101664.94;146613;623;47012;-73
2022/10/16 04:54:37;;;;;;;;;20.75;17.00;;;;;13.78;74.27;101673.59;146615;623;46020;-75
2022/10/16 04:57:41;;;;;;;;;18.50;18.50;;;;;13.79;74.44;101667.56;146617;706;46914;-73
2022/10/16 05:00:33;;;;;;;;;19.75;18.00;;;;;13.79;74.37;101675.38;146621;614;46021;-72
2022/10/16 05:03:34;;;;;;;;;16.50;16.00;;;;;13.72;74.55;101666.34;146616;576;46915;-71
2022/10/16 05:06:28;;;;;;;;;19.50;16.50;;;;;13.69;74.70;101681.81;146622;608;46010;-75
2022/10/16 05:09:26;;;;;;;;;20.50;17.50;;;;;13.67;74.75;101678.22;146619;591;46013;-76
2022/10/16 05:12:20;;;;;;;;;24.25;17.75;;;;;13.69;74.67;101684.41;146617;678;47010;-76
2022/10/16 05:15:18;;;;;;;;;20.25;19.25;;;;;13.73;75.00;101682.88;146615;699;46025;-71
2022/10/16 05:18:13;;;;;;;;;17.50;17.50;;;;;13.75;74.61;101695.16;146618;582;46012;-71
2022/10/16 05:21:22;;;;;;;;;18.25;17.50;;;;;11.85;74.05;101342.91;146618;597;46012;-71
2022/10/16 05:24:14;;;;;;;;;17.75;16.50;;;;;13.82;74.29;101684.25;146612;599;46020;-71
2022/10/16 05:27:18;;;;;;;;;19.50;16.75;;;;;13.83;74.14;101688.66;146616;606;46016;-75
2022/10/16 05:30:12;;;;;;;;;19.00;17.75;;;;;13.86;74.31;101694.06;146614;610;46020;-78
2022/10/16 05:33:13;;;;;;;;;19.50;17.50;;;;;13.90;74.73;101699.44;146617;572;46016;-76
2022/10/16 05:36:27;;;;;;;;;21.00;19.00;;;;;13.86;74.41;101706.16;146618;571;47010;-77
2022/10/16 05:39:33;;;;;;;;;18.00;17.00;;;;;13.89;74.70;101692.41;146617;616;46012;-76
2022/10/16 05:42:30;;;;;;;;;19.00;17.00;;;;;13.98;74.53;101688.56;146621;584;46020;-69
2022/10/16 05:45:29;;;;;;;;;23.00;20.00;;;;;14.05;75.13;101697.63;146619;595;46012;-69
2022/10/16 05:48:23;;;;;;;;;18.50;16.50;;;;;14.08;74.81;101703.91;146620;609;46020;-69
2022/10/16 05:51:19;;;;;;;;;18.25;17.75;;;;;14.10;74.19;101712.69;146615;569;46915;-69
2022/10/16 05:54:20;;;;;;;;;19.25;18.75;;;;;14.15;73.93;101712.94;146614;638;46021;-68
2022/10/16 05:57:13;;;;;;;;;19.50;18.50;;;;;14.22;74.48;101724.59;146615;597;47012;-68
2022/10/16 06:00:21;;;;;;;;;21.00;19.00;;;;;14.23;74.46;101727.25;146616;661;47010;-70
2022/10/16 06:03:19;;;;;;;;;21.75;21.75;;;;;14.30;74.69;101734.63;146618;595;46913;-69
2022/10/16 06:06:43;;;;;;;;;20.50;19.50;;;;;12.58;74.06;101422.31;146620;647;46020;-69
2022/10/16 06:09:49;;;;;;;;;;;;;;;;;;;;;
2022/10/16 06:12:49;;;;;;;;;20.25;18.50;;;;;14.59;73.72;101745.69;146620;582;47010;-73
2022/10/16 06:16:05;;;;;;;;;25.25;19.25;;;;;12.78;72.83;101425.12;146618;616;46013;-78
2022/10/16 06:19:01;;;;;;;;;23.25;20.00;;;;;14.75;73.31;101760.41;146616;573;47010;-72
2022/10/16 06:21:58;;;;;;;;;25.75;19.00;;;;;14.79;73.02;101762.34;146616;702;46015;-73
2022/10/16 06:24:59;;;;;;;;;19.25;19.25;;;;;14.83;73.18;101759.09;146616;580;46010;-73
2022/10/16 06:28:01;;;;;;;;;20.00;19.25;;;;;14.89;72.42;101766.31;146608;627;47014;-74
2022/10/16 06:31:10;;;;;;;;;22.00;19.75;;;;;14.95;71.49;101774.47;146612;571;46021;-75
2022/10/16 06:34:09;;;;;;;;;18.50;17.75;;;;;15.01;72.44;101761.72;146609;598;46914;-75
2022/10/16 06:37:05;;;;;;;;;20.75;18.75;;;;;15.08;72.72;101766.44;146613;625;46010;-75
2022/10/16 06:39:57;;;;;;;;;18.25;17.25;;;;;15.14;72.50;101766.75;146609;574;46016;-71
2022/10/16 06:43:06;;;;;;;;;22.75;19.00;;;;;15.23;72.31;101784.56;146613;578;46033;-74
2022/10/16 06:46:07;;;;;;;;;25.00;22.00;;;;;15.24;72.21;101783.75;146608;606;47014;-73
2022/10/16 06:49:05;;;;;;;;;20.25;18.25;;;;;15.22;72.34;101768.00;146612;632;46010;-75
2022/10/16 06:52:12;;;;;;;;;17.75;17.00;;;;;15.25;71.79;101770.75;146609;602;47012;-77
2022/10/16 06:55:06;;;;;;;;;20.50;18.75;;;;;15.32;72.16;101771.94;146605;650;46020;-76
2022/10/16 06:58:00;;;;;;;;;25.00;21.50;;;;;15.45;72.56;101778.66;146608;663;46914;-76
2022/10/16 07:00:54;;;;;;;;;20.00;17.75;;;;;15.55;71.63;101780.03;146608;564;47011;-77
2022/10/16 07:03:53;;;;;;;;;21.00;21.00;;;;;15.61;71.22;101786.44;146611;577;46016;-79
2022/10/16 07:06:51;;;;;;;;;20.50;18.75;;;;;15.67;71.13;101793.72;146611;570;46021;-84
2022/10/16 07:09:47;;;;;;;;;20.75;20.75;;;;;15.74;71.20;101782.72;146609;603;46914;-74
2022/10/16 07:12:41;;;;;;;;;20.00;18.75;;;;;15.83;70.74;101783.16;146610;574;47010;-76
2022/10/16 07:15:40;;;;;;;;;27.50;23.75;;;;;15.94;69.96;101781.91;146609;573;46016;-82
2022/10/16 07:18:39;;;;;;;;;22.75;21.75;;;;;16.08;70.30;101787.78;146614;563;45020;-80
2022/10/16 07:21:39;;;;;;;;;26.75;23.00;;;;;16.21;69.35;101788.34;146610;601;46017;-77
2022/10/16 07:24:54;;;;;;;;;;;;;;;;;;;;;
2022/10/16 07:27:50;;;;;;;;;21.75;17.75;;;;;16.43;69.17;101779.72;146606;569;46012;-70
2022/10/16 07:30:44;;;;;;;;;24.00;22.50;;;;;16.50;69.04;101789.63;146614;572;46021;-72
2022/10/16 07:33:44;;;;;;;;;23.50;22.00;;;;;16.54;68.78;101795.09;146609;564;46012;-72
2022/10/16 07:36:40;;;;;;;;;18.25;16.00;;;;;16.53;69.15;101803.75;146612;573;47010;-69
2022/10/16 07:39:42;;;;;;;;;16.00;13.00;;;;;16.53;69.57;101806.37;146608;585;46014;-73
2022/10/16 07:42:43;;;;;;;;;18.50;17.25;;;;;16.59;69.66;101806.66;146610;698;46020;-77
2022/10/16 07:45:50;;;;;;;;;15.00;13.25;;;;;16.62;69.64;101809.41;146609;566;46017;-74
2022/10/16 07:48:55;;;;;;;;;;;;;;;;;;;;;
2022/10/16 07:52:04;;;;;;;;;19.50;16.00;;;;;16.81;69.50;101818.97;146609;570;46017;-70
2022/10/16 07:55:15;;;;;;;;;15.75;15.00;;;;;16.90;68.65;101810.63;146609;618;46010;-69
2022/10/16 07:58:11;;;;;;;;;16.50;15.50;;;;;16.95;68.77;101816.97;146609;603;47012;-71
2022/10/16 08:01:16;;;;;;;;;15.00;15.00;;;;;17.05;69.63;101811.28;146612;591;46021;-71
2022/10/16 08:04:25;;;;;;;;;16.00;15.00;;;;;17.17;69.28;101812.63;146611;595;46016;-71
2022/10/16 08:07:21;;;;;;;;;14.75;14.75;;;;;17.30;68.98;101815.81;146615;607;46020;-71
2022/10/16 08:10:25;;;;;;;;;15.50;14.00;;;;;17.42;68.98;101804.94;146610;608;46016;-70
2022/10/16 08:13:31;;;;;;;;;16.00;16.00;;;;;17.50;68.37;101800.00;146610;625;46020;-70
2022/10/16 08:16:29;;;;;;;;;16.75;16.75;;;;;16.78;67.86;101661.69;146609;573;46915;-70
2022/10/16 08:19:24;;;;;;;;;14.00;12.75;;;;;17.70;67.19;101811.28;146609;665;47010;-71
2022/10/16 08:22:34;;;;;;;;;;;;;;;;;;;;;
2022/10/16 08:25:30;;;;;;;;;16.00;14.75;;;;;17.88;66.72;101812.06;146607;589;46020;-72
2022/10/16 08:28:22;;;;;;;;;16.50;14.50;;;;;17.97;66.88;101806.25;146615;642;47914;-72
2022/10/16 08:31:26;;;;;;;;;14.25;13.50;;;;;18.08;66.94;101814.53;146611;564;46914;-71
2022/10/16 08:34:21;;;;;;;;;13.50;13.50;;;;;18.16;66.35;101824.50;146615;655;46012;-70
2022/10/16 08:37:16;;;;;;;;;14.25;14.00;;;;;18.23;66.57;101818.62;146620;564;46030;-71
2022/10/16 08:40:23;;;;;;;;;19.25;16.75;;;;;18.31;65.74;101821.53;146614;693;46016;-71
2022/10/16 08:44:19;;;;;;;;;24.50;21.75;;;;;16.58;65.82;101513.34;146620;571;46021;-71
2022/10/16 08:48:11;;;;;;;;;17.50;15.50;;;;;16.14;65.79;101429.63;146614;610;46012;-71
2022/10/16 08:51:35;;;;;;;;;17.25;15.00;;;;;18.48;65.02;101832.66;146616;581;47012;-70
2022/10/16 08:54:36;;;;;;;;;16.75;15.50;;;;;18.50;64.52;101830.09;146615;564;47012;-70
2022/10/16 08:57:32;;;;;;;;;17.75;17.75;;;;;18.51;64.60;101829.28;146613;575;46021;-70
2022/10/16 09:00:32;;;;;;;;;19.00;16.75;;;;;18.53;64.87;101820.56;146617;579;46012;-71
2022/10/16 09:03:53;;;;;;;;;12.50;11.00;;;;;18.62;65.69;101830.53;146620;563;47011;-71
2022/10/16 09:07:30;;;;;;;;;19.50;16.50;;;;;17.08;65.48;101544.12;146616;611;46013;-70
2022/10/16 09:11:09;;;;;;;;;18.00;17.50;;;;;17.25;64.43;101550.00;146620;624;47010;-71
2022/10/16 09:14:54;;;;;;;;;18.00;17.75;;;;;16.52;64.45;101414.50;146617;610;47013;-71
2022/10/16 09:18:21;;;;;;;;;20.50;16.50;;;;;18.97;64.14;101829.19;146615;564;46914;-70
2022/10/16 09:21:43;;;;;;;;;18.00;16.00;;;;;19.01;63.78;101835.47;146617;636;47012;-70
2022/10/16 09:25:02;;;;;;;;;18.75;16.25;;;;;17.20;63.56;101511.37;146619;642;46022;-71
2022/10/16 09:28:18;;;;;;;;;15.00;15.00;;;;;17.93;64.25;101645.16;146615;605;46016;-71
2022/10/16 09:31:22;;;;;;;;;7.50;5.00;;;;;19.02;63.98;101842.50;146616;612;46010;-71
2022/10/16 09:34:48;;;;;;;;;14.75;13.75;;;;;19.06;63.86;101833.84;146615;668;47012;-71
2022/10/16 09:37:49;;;;;;;;;19.75;17.50;;;;;19.11;63.72;101832.28;146622;604;46020;-72
2022/10/16 09:40:46;;;;;;;;;18.25;16.00;;;;;19.19;63.25;101835.16;146616;569;46012;-70
2022/10/16 09:44:12;;;;;;;;;17.75;16.50;;;;;19.25;62.86;101836.28;146620;578;46021;-75
2022/10/16 09:47:33;;;;;;;;;14.00;13.25;;;;;19.31;63.46;101830.31;146617;569;46016;-69
2022/10/16 09:50:34;;;;;;;;;16.25;14.00;;;;;19.31;62.34;101825.06;146621;601;46020;-71
2022/10/16 09:53:33;;;;;;;;;16.25;14.25;;;;;19.30;62.87;101818.91;146614;581;47014;-71
2022/10/16 09:56:41;;;;;;;;;16.00;16.00;;;;;19.36;62.09;101819.13;146620;591;46010;-73
2022/10/16 09:59:39;;;;;;;;;16.75;14.75;;;;;19.44;62.18;101808.84;146610;589;46017;-70
2022/10/16 10:02:47;;;;;;;;;13.00;13.00;;;;;19.58;62.27;101817.19;146614;673;46029;-72
2022/10/16 10:05:45;;;;;;;;;19.50;18.50;;;;;19.68;62.59;101808.75;146616;576;46013;-71
2022/10/16 10:09:17;;;;;;;;;28.25;26.00;;;;;19.78;62.51;101802.94;146621;626;46020;-72
2022/10/16 10:12:36;;;;;;;;;13.25;12.50;;;;;19.90;62.53;101802.41;146615;614;46017;-72
2022/10/16 10:15:50;;;;;;;;;15.75;15.75;;;;;20.16;61.39;101797.03;146619;644;46010;-72
2022/10/16 10:18:42;;;;;;;;;41.25;33.25;;;;;20.37;60.49;101791.47;146614;569;47012;-72
2022/10/16 10:21:42;;;;;;;;;32.50;29.75;;;;;20.48;60.69;101797.94;146617;603;47010;-72
2022/10/16 10:24:34;;;;;;;;;14.50;14.50;;;;;20.58;59.48;101793.84;146615;569;46016;-72
2022/10/16 10:28:12;;;;;;;;;15.50;14.50;;;;;20.59;59.76;101790.34;146619;634;46020;-72
2022/10/16 10:31:30;;;;;;;;;;;;;;;;;;;;;
2022/10/16 10:34:50;;;;;;;;;23.50;22.25;;;;;21.22;59.34;101780.59;146613;570;46011;-72
2022/10/16 10:38:24;;;;;;;;;14.00;13.00;;;;;21.49;58.46;101771.56;146617;639;46016;-71
2022/10/16 10:42:04;;;;;;;;;18.33;15.67;;;;;19.85;58.28;101482.94;146620;625;46020;-71
2022/10/16 10:45:27;;;;;;;;;11.33;11.00;;;;;21.59;57.94;101772.72;146616;577;47012;-72
2022/10/16 10:49:10;;;;;;;;;16.50;15.00;;;;;21.51;57.43;101779.53;146621;581;46010;-71
2022/10/16 10:52:39;;;;;;;;;15.33;12.67;;;;;19.17;58.43;101408.34;146616;656;46016;-72
2022/10/16 10:56:00;;;;;;;;;16.75;15.75;;;;;21.13;58.27;101772.47;146622;563;46020;-71
2022/10/16 10:59:52;;;;;;;;;13.67;13.67;;;;;19.36;59.06;101487.75;146613;672;46016;-72
2022/10/16 11:03:31;;;;;;;;;12.67;12.67;;;;;19.40;58.81;101488.72;146622;569;46020;-71
2022/10/16 11:06:33;;;;;;;;;16.00;15.25;;;;;21.20;58.26;101773.50;146614;582;46016;-71
2022/10/16 11:09:35;;;;;;;;;17.00;15.75;;;;;21.19;57.00;101764.69;146616;640;46010;-72
2022/10/16 11:12:56;;;;;;;;;13.33;13.33;;;;;21.17;58.51;101771.66;146619;640;46017;-70
2022/10/16 11:15:52;;;;;;;;;13.67;12.67;;;;;21.25;57.84;101768.34;146621;596;46025;-72
2022/10/16 11:19:07;;;;;;;;;15.00;15.00;;;;;21.27;58.16;101774.53;146619;632;46016;-72
2022/10/16 11:22:54;;;;;;;;;16.33;15.00;;;;;19.62;58.66;101479.66;146615;682;47012;-72
2022/10/16 11:25:50;;;;;;;;;18.00;14.00;;;;;21.52;56.90;101760.19;146616;595;47012;-72
2022/10/16 11:28:59;;;;;;;;;14.67;13.33;;;;;21.83;56.92;101760.03;146619;620;46010;-72
2022/10/16 11:32:02;;;;;;;;;13.00;13.00;;;;;22.13;53.20;101754.50;146614;620;47012;-73
2022/10/16 11:35:29;;;;;;;;;16.00;14.00;;;;;22.36;56.06;101759.37;146618;703;47010;-71
2022/10/16 11:39:05;;;;;;;;;14.00;12.67;;;;;22.49;53.27;101752.56;146617;644;46914;-72
2022/10/16 11:42:23;;;;;;;;;14.00;12.67;;;;;22.60;57.12;101757.19;146616;606;46021;-71
2022/10/16 11:45:37;;;;;;;;;13.25;10.75;;;;;22.72;54.17;101747.72;146613;563;47014;-72
2022/10/16 11:49:08;;;;;;;;;15.67;14.33;;;;;21.25;55.07;101472.94;146620;611;47010;-72
2022/10/16 11:53:01;;;;;;;;;12.33;12.33;;;;;21.29;56.72;101475.62;146619;605;46912;-71
2022/10/16 11:56:04;;;;;;;;;12.67;12.33;;;;;22.96;53.68;101755.19;146623;596;46010;-72
2022/10/16 11:59:48;;;;;;;;;15.00;14.00;;;;;21.53;55.57;101490.22;146615;598;48919;-71
2022/10/16 12:03:18;;;;;;;;;12.33;11.00;;;;;21.43;55.31;101468.00;146618;597;47010;-72
2022/10/16 12:06:55;;;;;;;;;13.67;13.00;;;;;23.07;54.83;101745.69;146615;581;46016;-73
2022/10/16 12:10:00;;;;;;;;;13.00;13.00;;;;;23.14;53.54;101749.31;146619;594;46020;-72
2022/10/16 12:12:56;;;;;;;;;11.33;11.33;;;;;23.15;52.41;101753.75;146615;609;46012;-72
2022/10/16 12:16:28;;;;;;;;;12.33;11.67;;;;;23.11;54.09;101757.19;146615;595;47010;-71
2022/10/16 12:19:26;;;;;;;;;14.00;13.67;;;;;23.03;53.40;101757.09;146618;583;46913;-72
2022/10/16 12:22:27;;;;;;;;;14.67;13.00;;;;;22.96;52.71;101760.47;146620;577;47010;-72
2022/10/16 12:26:05;;;;;;;;;14.00;13.00;;;;;21.92;56.62;101593.84;146619;613;46016;-70
2022/10/16 12:29:26;;;;;;;;;;;;;;;;;;;;;
2022/10/16 12:32:41;;;;;;;;;10.00;10.00;;;;;22.98;55.23;101754.34;146612;581;46912;-72
2022/10/16 12:35:48;;;;;;;;;13.00;11.33;;;;;22.91;54.59;101751.56;146621;584;46020;-71
2022/10/16 12:38:58;;;;;;;;;11.00;10.67;;;;;22.96;54.24;101752.53;146615;564;46016;-71
2022/10/16 12:42:20;;;;;;;;;13.33;13.33;;;;;23.01;54.07;101757.06;146622;569;46029;-71
2022/10/16 12:45:47;;;;;;;;;13.67;13.00;;;;;21.44;54.00;101480.34;146616;648;46012;-72
2022/10/16 12:48:44;;;;;;;;;14.00;13.00;;;;;23.02;53.59;101760.56;146612;625;46020;-71
2022/10/16 12:52:00;;;;;;;;;13.33;13.00;;;;;22.98;54.68;101759.66;146613;583;47012;-72
2022/10/16 12:55:04;;;;;;;;;14.67;14.67;;;;;22.90;52.86;101755.97;146621;659;46021;-69
2022/10/16 12:58:41;;;;;;;;;16.33;13.00;;;;;22.87;52.84;101761.19;146619;669;46012;-74
2022/10/16 13:02:13;;;;;;;;;11.67;11.67;;;;;21.19;54.66;101477.22;146619;579;46022;-72
2022/10/16 13:05:37;;;;;;;;;13.67;13.67;;;;;20.71;54.81;101393.63;146617;579;46016;-69
2022/10/16 13:09:02;;;;;;;;;13.00;12.67;;;;;22.80;55.29;101759.28;146617;654;46012;-74
2022/10/16 13:13:08;;;;;;;;;;;;;;;;;;;;;
2022/10/16 13:16:51;;;;;;;;;13.00;12.50;;;;;21.18;54.47;101488.63;146620;575;46010;-75
2022/10/16 13:20:10;;;;;;;;;11.00;10.00;;;;;21.31;52.91;101515.22;146613;572;46035;-77
2022/10/16 13:23:46;;;;;;;;;14.25;12.25;;;;;22.80;55.34;101760.22;146611;589;46020;-71
2022/10/16 13:27:21;;;;;;;;;12.67;12.67;;;;;22.81;53.84;101767.28;146620;731;46016;-74
2022/10/16 13:30:35;;;;;;;;;13.00;12.33;;;;;22.79;53.61;101760.16;146619;569;47010;-72
2022/10/16 13:33:58;;;;;;;;;16.75;12.75;;;;;21.17;54.82;101476.28;146614;602;47012;-71
2022/10/16 13:37:04;;;;;;;;;17.50;15.00;;;;;22.66;52.06;101759.06;146618;607;46012;-71
2022/10/16 13:40:19;;;;;;;;;16.75;16.00;;;;;22.53;52.36;101760.59;146616;590;46017;-72
2022/10/16 13:43:15;;;;;;;;;12.00;10.00;;;;;22.39;51.97;101761.19;146620;599;46020;-72
2022/10/16 13:46:34;;;;;;;;;15.50;14.00;;;;;20.53;54.63;101478.47;146615;614;46916;-72
2022/10/16 13:49:35;;;;;;;;;14.75;13.50;;;;;21.98;52.80;101766.50;146615;595;46010;-72
2022/10/16 13:52:28;;;;;;;;;12.75;12.25;;;;;21.86;53.43;101764.47;146614;582;46016;-72
2022/10/16 13:55:25;;;;;;;;;13.67;12.67;;;;;21.80;53.63;101769.63;146616;604;47012;-72
2022/10/16 13:58:24;;;;;;;;;13.00;13.00;;;;;21.75;54.31;101776.56;146616;640;46016;-71
2022/10/16 14:01:34;;;;;;;;;11.33;11.33;;;;;21.70;54.59;101778.22;146620;677;46020;-72
2022/10/16 14:04:44;;;;;;;;;13.50;13.50;;;;;21.63;55.90;101778.06;146613;580;47012;-72
2022/10/16 14:07:40;;;;;;;;;15.50;13.75;;;;;21.58;53.41;101781.47;146618;668;46010;-72
2022/10/16 14:10:37;;;;;;;;;15.50;14.00;;;;;21.56;54.10;101783.19;146614;569;47012;-71
2022/10/16 14:13:52;;;;;;;;;12.50;12.25;;;;;21.57;55.72;101787.59;146619;569;46020;-71
2022/10/16 14:16:52;;;;;;;;;16.00;15.50;;;;;21.56;53.69;101777.91;146614;605;47012;-72
2022/10/16 14:19:58;;;;;;;;;13.75;13.75;;;;;21.57;52.96;101785.84;146622;586;46020;-72
2022/10/16 14:23:02;;;;;;;;;15.50;14.00;;;;;21.58;53.77;101782.34;146614;678;46916;-72
2022/10/16 14:25:58;;;;;;;;;17.50;15.50;;;;;21.65;53.50;101791.28;146614;578;46030;-72
2022/10/16 14:29:09;;;;;;;;;13.00;12.67;;;;;21.67;53.87;101790.47;146611;634;46016;-71